sensor_id;sensor_type;location;lat;lon;timestamp;P1;durP1;ratioP1;P2;durP2;ratioP2
27839;SDS011;15207;42.182;24.308;2024-01-16T00:00:22;268.20;;;89.00;;
27839;SDS011;15207;42.182;24.308;2024-01-16T00:02:48;391.20;;;119.10;;
27839;SDS011;15207;42.182;24.308;2024-01-16T00:05:13;376.90;;;112.60;;
27839;SDS011;15207;42.182;24.308;2024-01-16T00:07:39;359.80;;;108.50;;
27839;SDS011;15207;42.182;24.308;2024-01-16T00:10:07;475.90;;;139.60;;
27839;SDS011;15207;42.182;24.308;2024-01-16T00:12:33;463.40;;;136.10;;
27839;SDS011;15207;42.182;24.308;2024-01-16T00:14:58;448.20;;;129.37;;
27839;SDS011;15207;42.182;24.308;2024-01-16T00:17:23;387.00;;;114.00;;
27839;SDS011;15207;42.182;24.308;2024-01-16T00:19:49;316.60;;;93.30;;
27839;SDS011;15207;42.182;24.308;2024-01-16T00:22:14;189.45;;;63.10;;
27839;SDS011;15207;42.182;24.308;2024-01-16T00:24:40;163.90;;;60.25;;
27839;SDS011;15207;42.182;24.308;2024-01-16T00:27:05;214.90;;;70.00;;
27839;SDS011;15207;42.182;24.308;2024-01-16T00:34:21;126.37;;;53.87;;
27839;SDS011;15207;42.182;24.308;2024-01-16T00:36:48;132.15;;;52.80;;
27839;SDS011;15207;42.182;24.308;2024-01-16T00:39:14;172.30;;;59.70;;
27839;SDS011;15207;42.182;24.308;2024-01-16T00:41:39;153.40;;;60.60;;
27839;SDS011;15207;42.182;24.308;2024-01-16T00:44:05;151.10;;;55.30;;
27839;SDS011;15207;42.182;24.308;2024-01-16T00:46:30;120.10;;;49.15;;
27839;SDS011;15207;42.182;24.308;2024-01-16T00:48:55;123.70;;;51.40;;
27839;SDS011;15207;42.182;24.308;2024-01-16T00:51:21;113.70;;;50.05;;
27839;SDS011;15207;42.182;24.308;2024-01-16T00:53:46;121.30;;;49.50;;
27839;SDS011;15207;42.182;24.308;2024-01-16T00:56:12;117.20;;;49.00;;
27839;SDS011;15207;42.182;24.308;2024-01-16T00:58:37;142.95;;;56.10;;
27839;SDS011;15207;42.182;24.308;2024-01-16T01:03:29;207.80;;;74.20;;
27839;SDS011;15207;42.182;24.308;2024-01-16T01:08:20;174.90;;;68.70;;
27839;SDS011;15207;42.182;24.308;2024-01-16T01:10:45;170.00;;;64.65;;
27839;SDS011;15207;42.182;24.308;2024-01-16T01:18:01;164.90;;;60.30;;
27839;SDS011;15207;42.182;24.308;2024-01-16T01:20:27;165.25;;;62.20;;
27839;SDS011;15207;42.182;24.308;2024-01-16T01:22:52;152.40;;;60.95;;
27839;SDS011;15207;42.182;24.308;2024-01-16T01:25:18;152.90;;;60.40;;
27839;SDS011;15207;42.182;24.308;2024-01-16T01:27:43;148.05;;;59.25;;
27839;SDS011;15207;42.182;24.308;2024-01-16T01:30:09;155.70;;;61.15;;
27839;SDS011;15207;42.182;24.308;2024-01-16T01:32:37;153.00;;;59.80;;
27839;SDS011;15207;42.182;24.308;2024-01-16T01:35:04;141.60;;;57.60;;
27839;SDS011;15207;42.182;24.308;2024-01-16T01:37:30;144.50;;;58.10;;
27839;SDS011;15207;42.182;24.308;2024-01-16T01:39:56;150.15;;;61.70;;
27839;SDS011;15207;42.182;24.308;2024-01-16T01:42:21;141.40;;;59.70;;
27839;SDS011;15207;42.182;24.308;2024-01-16T01:44:47;145.30;;;61.05;;
27839;SDS011;15207;42.182;24.308;2024-01-16T01:49:39;142.30;;;59.10;;
27839;SDS011;15207;42.182;24.308;2024-01-16T01:52:04;155.95;;;63.25;;
27839;SDS011;15207;42.182;24.308;2024-01-16T01:54:31;131.80;;;55.70;;
27839;SDS011;15207;42.182;24.308;2024-01-16T01:57:00;121.17;;;57.03;;
27839;SDS011;15207;42.182;24.308;2024-01-16T01:59:26;104.50;;;51.60;;
27839;SDS011;15207;42.182;24.308;2024-01-16T02:01:52;100.65;;;51.40;;
27839;SDS011;15207;42.182;24.308;2024-01-16T02:04:19;107.80;;;51.90;;
27839;SDS011;15207;42.182;24.308;2024-01-16T02:06:45;97.60;;;50.00;;
27839;SDS011;15207;42.182;24.308;2024-01-16T02:09:11;108.40;;;53.00;;
27839;SDS011;15207;42.182;24.308;2024-01-16T02:14:04;105.40;;;55.20;;
27839;SDS011;15207;42.182;24.308;2024-01-16T02:16:34;92.50;;;48.30;;
27839;SDS011;15207;42.182;24.308;2024-01-16T02:19:03;102.50;;;52.90;;
27839;SDS011;15207;42.182;24.308;2024-01-16T02:21:30;90.70;;;49.10;;
27839;SDS011;15207;42.182;24.308;2024-01-16T02:24:02;82.55;;;46.60;;
27839;SDS011;15207;42.182;24.308;2024-01-16T02:26:28;77.00;;;42.80;;
27839;SDS011;15207;42.182;24.308;2024-01-16T02:28:55;83.80;;;44.70;;
27839;SDS011;15207;42.182;24.308;2024-01-16T02:31:20;84.20;;;45.60;;
27839;SDS011;15207;42.182;24.308;2024-01-16T02:33:46;81.20;;;42.90;;
27839;SDS011;15207;42.182;24.308;2024-01-16T02:38:37;93.20;;;47.40;;
27839;SDS011;15207;42.182;24.308;2024-01-16T02:41:03;85.70;;;44.60;;
27839;SDS011;15207;42.182;24.308;2024-01-16T02:43:28;86.20;;;44.70;;
27839;SDS011;15207;42.182;24.308;2024-01-16T02:45:54;86.00;;;43.50;;
27839;SDS011;15207;42.182;24.308;2024-01-16T02:48:19;78.00;;;42.70;;
27839;SDS011;15207;42.182;24.308;2024-01-16T02:50:45;87.00;;;44.30;;
27839;SDS011;15207;42.182;24.308;2024-01-16T02:53:11;83.90;;;44.80;;
27839;SDS011;15207;42.182;24.308;2024-01-16T02:55:36;82.15;;;44.95;;
27839;SDS011;15207;42.182;24.308;2024-01-16T02:58:02;96.70;;;47.60;;
27839;SDS011;15207;42.182;24.308;2024-01-16T03:00:28;96.10;;;50.20;;
27839;SDS011;15207;42.182;24.308;2024-01-16T03:02:54;96.80;;;48.50;;
27839;SDS011;15207;42.182;24.308;2024-01-16T03:05:19;133.60;;;56.40;;
27839;SDS011;15207;42.182;24.308;2024-01-16T03:10:10;140.10;;;60.00;;
27839;SDS011;15207;42.182;24.308;2024-01-16T03:12:36;132.80;;;59.50;;
27839;SDS011;15207;42.182;24.308;2024-01-16T03:15:01;121.75;;;54.55;;
27839;SDS011;15207;42.182;24.308;2024-01-16T03:17:28;131.50;;;55.30;;
27839;SDS011;15207;42.182;24.308;2024-01-16T03:22:19;124.70;;;54.95;;
27839;SDS011;15207;42.182;24.308;2024-01-16T03:24:44;121.60;;;55.50;;
27839;SDS011;15207;42.182;24.308;2024-01-16T03:27:10;131.10;;;53.80;;
27839;SDS011;15207;42.182;24.308;2024-01-16T03:29:35;119.10;;;54.10;;
27839;SDS011;15207;42.182;24.308;2024-01-16T03:34:26;116.80;;;52.25;;
27839;SDS011;15207;42.182;24.308;2024-01-16T03:36:52;108.50;;;50.50;;
27839;SDS011;15207;42.182;24.308;2024-01-16T03:39:17;111.60;;;50.40;;
27839;SDS011;15207;42.182;24.308;2024-01-16T03:41:43;137.10;;;59.10;;
27839;SDS011;15207;42.182;24.308;2024-01-16T03:44:09;186.60;;;69.15;;
27839;SDS011;15207;42.182;24.308;2024-01-16T03:46:34;174.15;;;67.60;;
27839;SDS011;15207;42.182;24.308;2024-01-16T03:49:00;193.70;;;75.50;;
27839;SDS011;15207;42.182;24.308;2024-01-16T03:51:25;163.85;;;67.30;;
27839;SDS011;15207;42.182;24.308;2024-01-16T03:53:50;163.80;;;69.10;;
27839;SDS011;15207;42.182;24.308;2024-01-16T03:56:16;147.25;;;60.85;;
27839;SDS011;15207;42.182;24.308;2024-01-16T03:58:41;146.20;;;60.90;;
27839;SDS011;15207;42.182;24.308;2024-01-16T04:03:32;143.80;;;58.90;;
27839;SDS011;15207;42.182;24.308;2024-01-16T04:05:59;160.95;;;66.45;;
27839;SDS011;15207;42.182;24.308;2024-01-16T04:10:50;119.90;;;54.90;;
27839;SDS011;15207;42.182;24.308;2024-01-16T04:13:15;112.60;;;50.90;;
27839;SDS011;15207;42.182;24.308;2024-01-16T04:15:41;84.60;;;42.10;;
27839;SDS011;15207;42.182;24.308;2024-01-16T04:18:06;92.50;;;46.50;;
27839;SDS011;15207;42.182;24.308;2024-01-16T04:22:57;83.80;;;41.40;;
27839;SDS011;15207;42.182;24.308;2024-01-16T04:30:14;83.10;;;42.35;;
27839;SDS011;15207;42.182;24.308;2024-01-16T04:32:39;88.50;;;43.30;;
27839;SDS011;15207;42.182;24.308;2024-01-16T04:35:05;91.20;;;43.20;;
27839;SDS011;15207;42.182;24.308;2024-01-16T04:37:30;79.50;;;40.70;;
27839;SDS011;15207;42.182;24.308;2024-01-16T04:39:56;82.80;;;39.20;;
27839;SDS011;15207;42.182;24.308;2024-01-16T04:47:13;75.20;;;39.30;;
27839;SDS011;15207;42.182;24.308;2024-01-16T04:49:40;81.50;;;42.30;;
27839;SDS011;15207;42.182;24.308;2024-01-16T04:52:06;94.40;;;46.30;;
27839;SDS011;15207;42.182;24.308;2024-01-16T04:54:32;90.75;;;46.45;;
27839;SDS011;15207;42.182;24.308;2024-01-16T04:56:57;114.20;;;51.20;;
27839;SDS011;15207;42.182;24.308;2024-01-16T04:59:23;152.50;;;68.60;;
27839;SDS011;15207;42.182;24.308;2024-01-16T05:01:48;132.93;;;65.37;;
27839;SDS011;15207;42.182;24.308;2024-01-16T05:04:13;127.60;;;66.80;;
27839;SDS011;15207;42.182;24.308;2024-01-16T05:06:39;109.00;;;54.80;;
27839;SDS011;15207;42.182;24.308;2024-01-16T05:09:04;82.85;;;43.95;;
27839;SDS011;15207;42.182;24.308;2024-01-16T05:11:30;74.10;;;39.20;;
27839;SDS011;15207;42.182;24.308;2024-01-16T05:13:55;63.70;;;34.70;;
27839;SDS011;15207;42.182;24.308;2024-01-16T05:16:24;55.90;;;31.55;;
27839;SDS011;15207;42.182;24.308;2024-01-16T05:18:50;59.80;;;33.00;;
27839;SDS011;15207;42.182;24.308;2024-01-16T05:21:16;59.20;;;33.70;;
27839;SDS011;15207;42.182;24.308;2024-01-16T05:23:41;56.50;;;31.50;;
27839;SDS011;15207;42.182;24.308;2024-01-16T05:26:07;115.40;;;60.70;;
27839;SDS011;15207;42.182;24.308;2024-01-16T05:28:32;57.55;;;32.00;;
27839;SDS011;15207;42.182;24.308;2024-01-16T05:30:57;50.05;;;27.50;;
27839;SDS011;15207;42.182;24.308;2024-01-16T05:33:24;50.15;;;25.90;;
27839;SDS011;15207;42.182;24.308;2024-01-16T05:35:49;44.60;;;25.50;;
27839;SDS011;15207;42.182;24.308;2024-01-16T05:40:41;66.70;;;37.60;;
27839;SDS011;15207;42.182;24.308;2024-01-16T05:43:07;58.10;;;34.25;;
27839;SDS011;15207;42.182;24.308;2024-01-16T05:45:32;58.70;;;32.90;;
27839;SDS011;15207;42.182;24.308;2024-01-16T05:47:58;58.60;;;33.70;;
27839;SDS011;15207;42.182;24.308;2024-01-16T05:50:23;60.15;;;31.45;;
27839;SDS011;15207;42.182;24.308;2024-01-16T05:52:48;62.20;;;32.50;;
27839;SDS011;15207;42.182;24.308;2024-01-16T05:55:14;53.40;;;30.20;;
27839;SDS011;15207;42.182;24.308;2024-01-16T05:57:39;43.40;;;24.60;;
27839;SDS011;15207;42.182;24.308;2024-01-16T06:00:05;33.90;;;19.60;;
27839;SDS011;15207;42.182;24.308;2024-01-16T06:04:56;21.50;;;13.80;;
27839;SDS011;15207;42.182;24.308;2024-01-16T06:07:22;18.25;;;11.35;;
27839;SDS011;15207;42.182;24.308;2024-01-16T06:12:13;11.70;;;8.10;;
27839;SDS011;15207;42.182;24.308;2024-01-16T06:14:38;12.20;;;7.40;;
27839;SDS011;15207;42.182;24.308;2024-01-16T06:17:03;10.55;;;6.60;;
27839;SDS011;15207;42.182;24.308;2024-01-16T06:19:31;7.20;;;5.50;;
27839;SDS011;15207;42.182;24.308;2024-01-16T06:21:56;6.20;;;4.65;;
27839;SDS011;15207;42.182;24.308;2024-01-16T06:24:22;7.75;;;5.80;;
27839;SDS011;15207;42.182;24.308;2024-01-16T06:26:48;9.55;;;5.45;;
27839;SDS011;15207;42.182;24.308;2024-01-16T06:29:13;10.90;;;7.90;;
27839;SDS011;15207;42.182;24.308;2024-01-16T06:31:38;14.40;;;9.30;;
27839;SDS011;15207;42.182;24.308;2024-01-16T06:34:04;10.40;;;8.60;;
27839;SDS011;15207;42.182;24.308;2024-01-16T06:36:29;13.40;;;10.20;;
27839;SDS011;15207;42.182;24.308;2024-01-16T06:38:55;10.45;;;8.30;;
27839;SDS011;15207;42.182;24.308;2024-01-16T06:41:20;7.80;;;5.70;;
27839;SDS011;15207;42.182;24.308;2024-01-16T06:43:46;11.60;;;6.10;;
27839;SDS011;15207;42.182;24.308;2024-01-16T06:46:11;20.85;;;13.20;;
27839;SDS011;15207;42.182;24.308;2024-01-16T06:48:37;10.85;;;8.15;;
27839;SDS011;15207;42.182;24.308;2024-01-16T06:51:03;23.80;;;19.70;;
27839;SDS011;15207;42.182;24.308;2024-01-16T06:58:20;11.30;;;8.90;;
27839;SDS011;15207;42.182;24.308;2024-01-16T07:00:46;7.00;;;5.60;;
27839;SDS011;15207;42.182;24.308;2024-01-16T07:03:12;4.20;;;3.40;;
27839;SDS011;15207;42.182;24.308;2024-01-16T07:08:03;6.40;;;3.40;;
27839;SDS011;15207;42.182;24.308;2024-01-16T07:10:28;3.05;;;2.20;;
27839;SDS011;15207;42.182;24.308;2024-01-16T07:12:54;2.50;;;2.00;;
27839;SDS011;15207;42.182;24.308;2024-01-16T07:15:20;3.00;;;2.20;;
27839;SDS011;15207;42.182;24.308;2024-01-16T07:17:45;7.20;;;2.10;;
27839;SDS011;15207;42.182;24.308;2024-01-16T07:20:11;3.30;;;2.40;;
27839;SDS011;15207;42.182;24.308;2024-01-16T07:22:37;6.80;;;2.30;;
27839;SDS011;15207;42.182;24.308;2024-01-16T07:25:04;2.20;;;1.90;;
27839;SDS011;15207;42.182;24.308;2024-01-16T07:27:30;2.30;;;1.85;;
27839;SDS011;15207;42.182;24.308;2024-01-16T07:29:55;6.05;;;2.20;;
27839;SDS011;15207;42.182;24.308;2024-01-16T07:34:47;4.10;;;1.85;;
27839;SDS011;15207;42.182;24.308;2024-01-16T07:37:12;3.55;;;2.05;;
27839;SDS011;15207;42.182;24.308;2024-01-16T07:39:38;2.45;;;2.00;;
27839;SDS011;15207;42.182;24.308;2024-01-16T07:42:03;3.20;;;2.20;;
27839;SDS011;15207;42.182;24.308;2024-01-16T07:44:29;5.60;;;2.60;;
27839;SDS011;15207;42.182;24.308;2024-01-16T07:46:54;3.90;;;2.00;;
27839;SDS011;15207;42.182;24.308;2024-01-16T07:49:20;3.15;;;2.85;;
27839;SDS011;15207;42.182;24.308;2024-01-16T07:54:10;4.80;;;2.80;;
27839;SDS011;15207;42.182;24.308;2024-01-16T07:56:38;7.80;;;2.80;;
27839;SDS011;15207;42.182;24.308;2024-01-16T07:59:03;6.10;;;3.00;;
27839;SDS011;15207;42.182;24.308;2024-01-16T08:01:29;6.00;;;2.80;;
27839;SDS011;15207;42.182;24.308;2024-01-16T08:03:55;4.80;;;2.80;;
27839;SDS011;15207;42.182;24.308;2024-01-16T08:06:21;7.50;;;2.90;;
27839;SDS011;15207;42.182;24.308;2024-01-16T08:08:47;6.50;;;3.20;;
27839;SDS011;15207;42.182;24.308;2024-01-16T08:11:13;4.40;;;3.10;;
27839;SDS011;15207;42.182;24.308;2024-01-16T08:13:39;3.20;;;2.80;;
27839;SDS011;15207;42.182;24.308;2024-01-16T08:16:05;8.70;;;2.80;;
27839;SDS011;15207;42.182;24.308;2024-01-16T08:18:30;7.95;;;3.10;;
27839;SDS011;15207;42.182;24.308;2024-01-16T08:20:58;9.35;;;2.80;;
27839;SDS011;15207;42.182;24.308;2024-01-16T08:25:49;8.20;;;3.20;;
27839;SDS011;15207;42.182;24.308;2024-01-16T08:28:16;5.50;;;3.50;;
27839;SDS011;15207;42.182;24.308;2024-01-16T08:30:45;7.80;;;2.30;;
27839;SDS011;15207;42.182;24.308;2024-01-16T08:33:11;18.10;;;5.80;;
27839;SDS011;15207;42.182;24.308;2024-01-16T08:35:37;21.00;;;5.80;;
27839;SDS011;15207;42.182;24.308;2024-01-16T08:38:03;39.60;;;14.70;;
27839;SDS011;15207;42.182;24.308;2024-01-16T08:40:29;10.60;;;3.10;;
27839;SDS011;15207;42.182;24.308;2024-01-16T08:42:55;6.20;;;2.50;;
27839;SDS011;15207;42.182;24.308;2024-01-16T08:45:20;6.60;;;2.50;;
27839;SDS011;15207;42.182;24.308;2024-01-16T08:47:47;8.90;;;2.30;;
27839;SDS011;15207;42.182;24.308;2024-01-16T08:50:12;12.90;;;2.20;;
27839;SDS011;15207;42.182;24.308;2024-01-16T08:52:38;15.50;;;3.20;;
27839;SDS011;15207;42.182;24.308;2024-01-16T08:55:03;9.10;;;3.00;;
27839;SDS011;15207;42.182;24.308;2024-01-16T08:57:29;8.80;;;2.50;;
27839;SDS011;15207;42.182;24.308;2024-01-16T08:59:55;14.30;;;2.70;;
27839;SDS011;15207;42.182;24.308;2024-01-16T09:02:20;11.40;;;6.00;;
27839;SDS011;15207;42.182;24.308;2024-01-16T09:04:46;6.30;;;2.50;;
27839;SDS011;15207;42.182;24.308;2024-01-16T09:07:15;10.15;;;2.80;;
27839;SDS011;15207;42.182;24.308;2024-01-16T09:09:41;10.25;;;2.95;;
27839;SDS011;15207;42.182;24.308;2024-01-16T09:12:07;11.70;;;2.80;;
27839;SDS011;15207;42.182;24.308;2024-01-16T09:14:35;12.20;;;2.50;;
27839;SDS011;15207;42.182;24.308;2024-01-16T09:17:01;16.10;;;3.00;;
27839;SDS011;15207;42.182;24.308;2024-01-16T09:19:28;5.90;;;2.90;;
27839;SDS011;15207;42.182;24.308;2024-01-16T09:24:19;10.25;;;2.20;;
27839;SDS011;15207;42.182;24.308;2024-01-16T09:26:45;7.30;;;2.40;;
27839;SDS011;15207;42.182;24.308;2024-01-16T09:29:10;15.80;;;3.50;;
27839;SDS011;15207;42.182;24.308;2024-01-16T09:31:36;16.30;;;2.70;;
27839;SDS011;15207;42.182;24.308;2024-01-16T09:34:04;3.70;;;1.80;;
27839;SDS011;15207;42.182;24.308;2024-01-16T09:36:30;10.20;;;3.70;;
27839;SDS011;15207;42.182;24.308;2024-01-16T09:38:55;14.65;;;2.95;;
27839;SDS011;15207;42.182;24.308;2024-01-16T09:41:21;8.25;;;3.30;;
27839;SDS011;15207;42.182;24.308;2024-01-16T09:43:47;5.00;;;2.15;;
27839;SDS011;15207;42.182;24.308;2024-01-16T09:46:14;2.60;;;1.60;;
27839;SDS011;15207;42.182;24.308;2024-01-16T09:48:41;6.85;;;1.70;;
27839;SDS011;15207;42.182;24.308;2024-01-16T09:51:09;9.45;;;1.95;;
27839;SDS011;15207;42.182;24.308;2024-01-16T09:53:38;2.05;;;1.60;;
27839;SDS011;15207;42.182;24.308;2024-01-16T09:56:03;4.40;;;2.80;;
27839;SDS011;15207;42.182;24.308;2024-01-16T10:01:00;6.00;;;1.70;;
27839;SDS011;15207;42.182;24.308;2024-01-16T10:03:26;5.50;;;1.70;;
27839;SDS011;15207;42.182;24.308;2024-01-16T10:05:55;3.50;;;1.50;;
27839;SDS011;15207;42.182;24.308;2024-01-16T10:08:21;7.20;;;1.60;;
27839;SDS011;15207;42.182;24.308;2024-01-16T10:10:47;6.60;;;1.50;;
27839;SDS011;15207;42.182;24.308;2024-01-16T10:15:39;8.80;;;2.00;;
27839;SDS011;15207;42.182;24.308;2024-01-16T10:18:04;2.25;;;1.35;;
27839;SDS011;15207;42.182;24.308;2024-01-16T10:20:33;13.50;;;1.90;;
27839;SDS011;15207;42.182;24.308;2024-01-16T10:22:59;5.05;;;1.70;;
27839;SDS011;15207;42.182;24.308;2024-01-16T10:25:25;7.20;;;1.60;;
27839;SDS011;15207;42.182;24.308;2024-01-16T10:28:02;9.10;;;1.90;;
27839;SDS011;15207;42.182;24.308;2024-01-16T10:30:28;8.20;;;1.80;;
27839;SDS011;15207;42.182;24.308;2024-01-16T10:32:54;4.30;;;1.70;;
27839;SDS011;15207;42.182;24.308;2024-01-16T10:37:52;3.45;;;1.20;;
27839;SDS011;15207;42.182;24.308;2024-01-16T10:40:24;1.90;;;1.40;;
27839;SDS011;15207;42.182;24.308;2024-01-16T10:43:03;5.85;;;1.70;;
27839;SDS011;15207;42.182;24.308;2024-01-16T10:45:29;12.15;;;3.10;;
27839;SDS011;15207;42.182;24.308;2024-01-16T10:50:31;50.67;;;25.80;;
27839;SDS011;15207;42.182;24.308;2024-01-16T10:53:04;8.25;;;3.40;;
27839;SDS011;15207;42.182;24.308;2024-01-16T10:55:50;5.13;;;1.33;;
27839;SDS011;15207;42.182;24.308;2024-01-16T10:58:22;5.45;;;2.55;;
27839;SDS011;15207;42.182;24.308;2024-01-16T11:00:49;5.50;;;1.30;;
27839;SDS011;15207;42.182;24.308;2024-01-16T11:08:33;1.80;;;1.20;;
27839;SDS011;15207;42.182;24.308;2024-01-16T11:11:02;2.50;;;1.10;;
27839;SDS011;15207;42.182;24.308;2024-01-16T11:13:30;3.40;;;1.45;;
27839;SDS011;15207;42.182;24.308;2024-01-16T11:16:00;3.45;;;1.30;;
27839;SDS011;15207;42.182;24.308;2024-01-16T11:18:28;7.50;;;3.30;;
27839;SDS011;15207;42.182;24.308;2024-01-16T11:20:55;7.10;;;1.70;;
27839;SDS011;15207;42.182;24.308;2024-01-16T11:23:21;6.80;;;1.80;;
27839;SDS011;15207;42.182;24.308;2024-01-16T11:28:14;3.65;;;1.27;;
27839;SDS011;15207;42.182;24.308;2024-01-16T11:30:41;4.90;;;1.80;;
27839;SDS011;15207;42.182;24.308;2024-01-16T11:35:55;10.50;;;2.00;;
27839;SDS011;15207;42.182;24.308;2024-01-16T11:38:21;3.50;;;1.20;;
27839;SDS011;15207;42.182;24.308;2024-01-16T11:40:47;1.00;;;0.90;;
27839;SDS011;15207;42.182;24.308;2024-01-16T11:45:56;5.55;;;1.70;;
27839;SDS011;15207;42.182;24.308;2024-01-16T11:48:23;2.30;;;1.30;;
27839;SDS011;15207;42.182;24.308;2024-01-16T11:50:49;4.00;;;1.40;;
27839;SDS011;15207;42.182;24.308;2024-01-16T11:53:33;2.60;;;1.50;;
27839;SDS011;15207;42.182;24.308;2024-01-16T12:01:32;5.35;;;1.15;;
27839;SDS011;15207;42.182;24.308;2024-01-16T12:06:26;5.50;;;1.90;;
27839;SDS011;15207;42.182;24.308;2024-01-16T12:08:52;4.63;;;1.80;;
27839;SDS011;15207;42.182;24.308;2024-01-16T12:11:20;8.80;;;2.70;;
27839;SDS011;15207;42.182;24.308;2024-01-16T12:14:00;6.35;;;2.10;;
27839;SDS011;15207;42.182;24.308;2024-01-16T12:19:03;6.00;;;2.60;;
27839;SDS011;15207;42.182;24.308;2024-01-16T12:21:32;9.90;;;2.40;;
27839;SDS011;15207;42.182;24.308;2024-01-16T12:23:59;5.60;;;2.10;;
27839;SDS011;15207;42.182;24.308;2024-01-16T12:26:25;5.75;;;1.90;;
27839;SDS011;15207;42.182;24.308;2024-01-16T12:28:53;3.60;;;1.90;;
27839;SDS011;15207;42.182;24.308;2024-01-16T12:31:19;3.35;;;1.50;;
27839;SDS011;15207;42.182;24.308;2024-01-16T12:33:44;2.95;;;1.60;;
27839;SDS011;15207;42.182;24.308;2024-01-16T12:36:09;2.90;;;2.00;;
27839;SDS011;15207;42.182;24.308;2024-01-16T12:38:35;1.50;;;1.35;;
27839;SDS011;15207;42.182;24.308;2024-01-16T12:41:01;3.25;;;1.70;;
27839;SDS011;15207;42.182;24.308;2024-01-16T12:45:57;6.50;;;2.00;;
27839;SDS011;15207;42.182;24.308;2024-01-16T12:48:25;3.85;;;1.50;;
27839;SDS011;15207;42.182;24.308;2024-01-16T12:53:16;34.97;;;15.67;;
27839;SDS011;15207;42.182;24.308;2024-01-16T12:55:44;15.30;;;9.10;;
27839;SDS011;15207;42.182;24.308;2024-01-16T13:00:54;3.85;;;1.90;;
27839;SDS011;15207;42.182;24.308;2024-01-16T13:03:21;2.70;;;1.30;;
27839;SDS011;15207;42.182;24.308;2024-01-16T13:05:54;4.30;;;2.30;;
27839;SDS011;15207;42.182;24.308;2024-01-16T13:08:21;5.55;;;1.70;;
27839;SDS011;15207;42.182;24.308;2024-01-16T13:11:05;2.35;;;1.25;;
27839;SDS011;15207;42.182;24.308;2024-01-16T13:13:32;4.25;;;1.35;;
27839;SDS011;15207;42.182;24.308;2024-01-16T13:15:58;3.70;;;1.60;;
27839;SDS011;15207;42.182;24.308;2024-01-16T13:20:53;4.70;;;2.30;;
27839;SDS011;15207;42.182;24.308;2024-01-16T13:25:47;10.70;;;5.50;;
27839;SDS011;15207;42.182;24.308;2024-01-16T13:28:16;3.90;;;1.90;;
27839;SDS011;15207;42.182;24.308;2024-01-16T13:30:43;10.40;;;1.65;;
27839;SDS011;15207;42.182;24.308;2024-01-16T13:33:09;11.10;;;4.90;;
27839;SDS011;15207;42.182;24.308;2024-01-16T13:35:38;2.25;;;1.55;;
27839;SDS011;15207;42.182;24.308;2024-01-16T13:38:05;2.50;;;1.50;;
27839;SDS011;15207;42.182;24.308;2024-01-16T13:40:32;10.10;;;2.10;;
27839;SDS011;15207;42.182;24.308;2024-01-16T13:42:58;3.65;;;1.95;;
27839;SDS011;15207;42.182;24.308;2024-01-16T13:45:24;18.60;;;2.20;;
27839;SDS011;15207;42.182;24.308;2024-01-16T13:47:50;5.90;;;1.90;;
27839;SDS011;15207;42.182;24.308;2024-01-16T13:50:15;4.60;;;1.50;;
27839;SDS011;15207;42.182;24.308;2024-01-16T13:52:42;2.97;;;1.60;;
27839;SDS011;15207;42.182;24.308;2024-01-16T13:55:08;6.70;;;2.00;;
27839;SDS011;15207;42.182;24.308;2024-01-16T13:57:34;1.95;;;1.20;;
27839;SDS011;15207;42.182;24.308;2024-01-16T14:00:04;3.40;;;1.90;;
27839;SDS011;15207;42.182;24.308;2024-01-16T14:02:31;4.20;;;1.70;;
27839;SDS011;15207;42.182;24.308;2024-01-16T14:04:57;8.30;;;1.95;;
27839;SDS011;15207;42.182;24.308;2024-01-16T14:07:22;5.20;;;2.55;;
27839;SDS011;15207;42.182;24.308;2024-01-16T14:09:48;3.90;;;1.95;;
27839;SDS011;15207;42.182;24.308;2024-01-16T14:12:14;3.00;;;1.90;;
27839;SDS011;15207;42.182;24.308;2024-01-16T14:14:39;3.80;;;1.90;;
27839;SDS011;15207;42.182;24.308;2024-01-16T14:17:06;7.00;;;2.50;;
27839;SDS011;15207;42.182;24.308;2024-01-16T14:19:31;6.20;;;2.00;;
27839;SDS011;15207;42.182;24.308;2024-01-16T14:22:00;3.50;;;1.95;;
27839;SDS011;15207;42.182;24.308;2024-01-16T14:24:25;9.07;;;2.43;;
27839;SDS011;15207;42.182;24.308;2024-01-16T14:26:51;11.30;;;3.00;;
27839;SDS011;15207;42.182;24.308;2024-01-16T14:29:16;10.10;;;2.70;;
27839;SDS011;15207;42.182;24.308;2024-01-16T14:31:42;12.50;;;2.40;;
27839;SDS011;15207;42.182;24.308;2024-01-16T14:34:11;10.80;;;5.50;;
27839;SDS011;15207;42.182;24.308;2024-01-16T14:36:39;44.60;;;17.00;;
27839;SDS011;15207;42.182;24.308;2024-01-16T14:39:05;15.95;;;7.90;;
27839;SDS011;15207;42.182;24.308;2024-01-16T14:41:31;24.00;;;13.30;;
27839;SDS011;15207;42.182;24.308;2024-01-16T14:43:57;10.45;;;4.50;;
27839;SDS011;15207;42.182;24.308;2024-01-16T14:46:23;8.50;;;4.50;;
27839;SDS011;15207;42.182;24.308;2024-01-16T14:48:48;7.05;;;3.75;;
27839;SDS011;15207;42.182;24.308;2024-01-16T14:51:13;8.70;;;3.80;;
27839;SDS011;15207;42.182;24.308;2024-01-16T14:53:39;9.25;;;4.30;;
27839;SDS011;15207;42.182;24.308;2024-01-16T14:56:04;8.30;;;4.10;;
27839;SDS011;15207;42.182;24.308;2024-01-16T14:58:30;10.40;;;4.30;;
27839;SDS011;15207;42.182;24.308;2024-01-16T15:00:56;11.40;;;4.25;;
27839;SDS011;15207;42.182;24.308;2024-01-16T15:03:24;13.55;;;4.95;;
27839;SDS011;15207;42.182;24.308;2024-01-16T15:05:50;19.25;;;7.35;;
27839;SDS011;15207;42.182;24.308;2024-01-16T15:08:18;21.20;;;7.10;;
27839;SDS011;15207;42.182;24.308;2024-01-16T15:10:44;16.50;;;5.70;;
27839;SDS011;15207;42.182;24.308;2024-01-16T15:15:35;10.40;;;4.20;;
27839;SDS011;15207;42.182;24.308;2024-01-16T15:18:04;12.20;;;5.00;;
27839;SDS011;15207;42.182;24.308;2024-01-16T15:20:30;11.95;;;4.75;;
27839;SDS011;15207;42.182;24.308;2024-01-16T15:22:55;11.00;;;4.30;;
27839;SDS011;15207;42.182;24.308;2024-01-16T15:25:21;11.60;;;4.90;;
27839;SDS011;15207;42.182;24.308;2024-01-16T15:27:48;14.30;;;5.00;;
27839;SDS011;15207;42.182;24.308;2024-01-16T15:32:49;20.65;;;12.25;;
27839;SDS011;15207;42.182;24.308;2024-01-16T15:35:15;25.50;;;13.20;;
27839;SDS011;15207;42.182;24.308;2024-01-16T15:37:40;11.60;;;6.80;;
27839;SDS011;15207;42.182;24.308;2024-01-16T15:45:01;5.20;;;2.60;;
27839;SDS011;15207;42.182;24.308;2024-01-16T15:47:26;5.40;;;3.30;;
27839;SDS011;15207;42.182;24.308;2024-01-16T15:49:52;26.55;;;3.70;;
27839;SDS011;15207;42.182;24.308;2024-01-16T15:52:19;8.90;;;2.70;;
27839;SDS011;15207;42.182;24.308;2024-01-16T15:54:45;11.60;;;3.70;;
27839;SDS011;15207;42.182;24.308;2024-01-16T15:57:10;8.80;;;2.40;;
27839;SDS011;15207;42.182;24.308;2024-01-16T16:02:01;5.50;;;1.60;;
27839;SDS011;15207;42.182;24.308;2024-01-16T16:04:26;7.65;;;2.10;;
27839;SDS011;15207;42.182;24.308;2024-01-16T16:06:52;5.55;;;2.05;;
27839;SDS011;15207;42.182;24.308;2024-01-16T16:09:17;4.20;;;1.90;;
27839;SDS011;15207;42.182;24.308;2024-01-16T16:11:43;3.80;;;1.90;;
27839;SDS011;15207;42.182;24.308;2024-01-16T16:14:10;2.10;;;1.70;;
27839;SDS011;15207;42.182;24.308;2024-01-16T16:16:36;2.10;;;1.50;;
27839;SDS011;15207;42.182;24.308;2024-01-16T16:19:02;3.20;;;1.60;;
27839;SDS011;15207;42.182;24.308;2024-01-16T16:21:27;4.90;;;2.30;;